createdAt,value
2019-06-27T00:00:37.392Z,22.20
2019-06-27T00:03:05.337Z,22.20
2019-06-27T00:05:33.319Z,22.20
2019-06-27T00:08:01.221Z,22.20
2019-06-27T00:10:29.087Z,22.10
2019-06-27T00:12:57.004Z,22.10
2019-06-27T00:15:24.879Z,22.20
2019-06-27T00:17:52.796Z,22.00
2019-06-27T00:20:21.078Z,21.90
2019-06-27T00:22:48.992Z,21.80
2019-06-27T00:25:17.192Z,21.80
2019-06-27T00:27:45.123Z,21.80
2019-06-27T00:30:13.202Z,21.70
2019-06-27T00:32:41.122Z,21.60
2019-06-27T00:35:09.196Z,21.50
2019-06-27T00:37:37.583Z,21.40
2019-06-27T00:40:06.191Z,21.40
2019-06-27T00:42:34.453Z,21.40
2019-06-27T00:45:02.425Z,21.40
2019-06-27T00:47:30.337Z,21.30
2019-06-27T00:49:58.244Z,21.30
2019-06-27T00:52:26.147Z,21.30
2019-06-27T00:54:54.015Z,21.20
2019-06-27T00:57:22.115Z,21.20
2019-06-27T00:59:49.983Z,21.20
2019-06-27T01:02:17.910Z,21.10
2019-06-27T01:04:45.782Z,21.00
2019-06-27T01:07:13.666Z,21.00
2019-06-27T01:09:41.580Z,20.90
2019-06-27T01:12:09.472Z,20.90
2019-06-27T01:14:37.388Z,20.90
2019-06-27T01:17:05.261Z,20.80
2019-06-27T01:19:33.186Z,20.90
2019-06-27T01:22:01.412Z,21.00
2019-06-27T01:24:29.725Z,21.00
2019-06-27T01:26:57.608Z,20.90
2019-06-27T01:29:25.522Z,20.90
2019-06-27T01:31:53.385Z,20.70
2019-06-27T01:34:21.684Z,20.70
2019-06-27T01:36:49.923Z,20.80
2019-06-27T01:39:17.848Z,20.80
2019-06-27T01:41:45.729Z,20.70
2019-06-27T01:44:31.302Z,20.70
2019-06-27T01:47:00.023Z,20.70
2019-06-27T01:49:27.988Z,20.80
2019-06-27T01:51:55.902Z,20.80
2019-06-27T01:54:23.818Z,20.80
2019-06-27T01:56:51.699Z,20.80
2019-06-27T01:59:19.616Z,20.80
2019-06-27T02:01:47.508Z,20.80
2019-06-27T02:04:15.410Z,20.70
2019-06-27T02:06:43.292Z,20.70
2019-06-27T02:09:11.214Z,20.60
2019-06-27T02:11:39.092Z,20.60
2019-06-27T02:14:07.099Z,20.60
2019-06-27T02:16:34.977Z,20.60
2019-06-27T02:19:02.932Z,20.40
2019-06-27T02:21:30.805Z,20.40
2019-06-27T02:23:58.684Z,20.40
2019-06-27T02:26:26.604Z,20.40
2019-06-27T02:28:54.471Z,20.40
2019-06-27T02:31:22.397Z,20.40
2019-06-27T02:33:50.267Z,20.40
2019-06-27T02:36:18.159Z,20.40
2019-06-27T02:38:46.032Z,20.30
2019-06-27T02:41:13.949Z,20.30
2019-06-27T02:43:42.229Z,20.30
2019-06-27T02:46:10.786Z,20.30
2019-06-27T02:48:38.707Z,20.20
2019-06-27T02:51:06.651Z,20.20
2019-06-27T02:53:34.526Z,20.20
2019-06-27T02:56:02.452Z,20.20
2019-06-27T02:58:32.488Z,20.10
2019-06-27T03:01:00.539Z,20.10
2019-06-27T03:03:28.807Z,20.10
2019-06-27T03:05:56.708Z,20.10
2019-06-27T03:08:24.572Z,20.10
2019-06-27T03:10:53.056Z,20.10
2019-06-27T03:13:20.937Z,20.10
2019-06-27T03:15:48.851Z,19.90
2019-06-27T03:18:16.816Z,20.00
2019-06-27T03:20:44.727Z,20.00
2019-06-27T03:23:13.000Z,20.00
2019-06-27T03:25:41.308Z,19.90
2019-06-27T03:28:09.219Z,19.90
2019-06-27T03:30:37.185Z,19.90
2019-06-27T03:33:05.191Z,19.80
2019-06-27T03:35:33.066Z,19.70
2019-06-27T03:38:01.299Z,19.70
2019-06-27T03:40:29.209Z,19.70
2019-06-27T03:42:57.121Z,19.60
2019-06-27T03:45:24.988Z,19.60
2019-06-27T03:47:52.892Z,19.70
2019-06-27T03:50:20.796Z,19.70
2019-06-27T03:52:48.754Z,19.60
2019-06-27T03:55:16.971Z,19.50
2019-06-27T03:57:45.596Z,19.50
2019-06-27T04:00:19.386Z,19.50
2019-06-27T04:02:47.712Z,19.50
2019-06-27T04:05:15.576Z,19.50
2019-06-27T04:07:43.479Z,19.40
2019-06-27T04:10:11.347Z,19.50
2019-06-27T04:12:39.264Z,19.50
2019-06-27T04:15:07.368Z,19.50
2019-06-27T04:17:35.266Z,19.40
2019-06-27T04:20:03.390Z,19.40
2019-06-27T04:22:31.403Z,19.40
2019-06-27T04:24:59.277Z,19.40
2019-06-27T04:27:27.147Z,19.40
2019-06-27T04:29:55.158Z,19.50
2019-06-27T04:32:23.032Z,19.60
2019-06-27T04:34:50.989Z,19.60
2019-06-27T04:37:18.865Z,19.60
2019-06-27T04:39:46.981Z,19.50
2019-06-27T04:42:14.909Z,19.40
2019-06-27T04:44:42.820Z,19.40
2019-06-27T04:47:11.028Z,19.40
2019-06-27T04:49:39.003Z,19.50
2019-06-27T04:52:07.267Z,19.50
2019-06-27T04:54:35.528Z,19.50
2019-06-27T04:57:03.595Z,19.60
2019-06-27T04:59:47.971Z,19.60
2019-06-27T05:02:01.192Z,19.70
2019-06-27T05:04:29.120Z,19.80
2019-06-27T05:06:56.995Z,19.80
2019-06-27T05:09:24.896Z,19.80
2019-06-27T05:11:52.771Z,19.80
2019-06-27T05:14:20.681Z,19.90
2019-06-27T05:16:48.556Z,20.00
2019-06-27T05:19:16.474Z,20.10
2019-06-27T05:21:44.375Z,20.10
2019-06-27T05:24:12.698Z,20.20
2019-06-27T05:26:40.580Z,20.30
2019-06-27T05:29:08.545Z,20.50
2019-06-27T05:31:36.429Z,20.60
2019-06-27T05:34:04.391Z,20.80
2019-06-27T05:36:32.301Z,21.00
2019-06-27T05:39:00.166Z,21.10
2019-06-27T05:41:28.131Z,21.30
2019-06-27T05:43:56.094Z,21.40
2019-06-27T05:46:24.015Z,21.60
2019-06-27T05:48:51.904Z,21.80
2019-06-27T05:51:19.839Z,22.00
2019-06-27T05:53:47.746Z,22.20
2019-06-27T05:56:15.644Z,22.50
2019-06-27T05:58:43.503Z,22.80
2019-06-27T06:01:11.932Z,23.20
2019-06-27T06:03:39.925Z,23.70
2019-06-27T06:06:08.090Z,24.20
2019-06-27T06:08:35.932Z,24.60
2019-06-27T06:11:03.863Z,25.00
2019-06-27T06:13:31.684Z,25.50
2019-06-27T06:16:01.164Z,25.90
2019-06-27T06:18:29.230Z,26.20
2019-06-27T06:20:57.131Z,26.70
2019-06-27T06:23:24.982Z,27.10
2019-06-27T06:25:52.926Z,27.50
2019-06-27T06:28:21.354Z,27.90
2019-06-27T06:30:49.274Z,28.30
2019-06-27T06:33:17.389Z,28.70
2019-06-27T06:35:45.326Z,29.00
2019-06-27T06:38:13.222Z,29.40
2019-06-27T06:40:41.955Z,29.70
2019-06-27T06:43:09.871Z,30.00
2019-06-27T06:45:37.774Z,30.30
2019-06-27T06:48:05.848Z,30.70
2019-06-27T06:50:33.795Z,30.90
2019-06-27T06:53:02.238Z,31.20
2019-06-27T06:55:30.562Z,31.50
2019-06-27T06:57:58.881Z,31.60
2019-06-27T07:00:27.388Z,31.90
2019-06-27T07:02:55.395Z,32.10
2019-06-27T07:05:23.295Z,32.40
2019-06-27T07:07:51.202Z,32.70
2019-06-27T07:10:19.279Z,32.80
2019-06-27T07:12:47.219Z,33.10
2019-06-27T07:15:15.302Z,33.20
2019-06-27T07:17:43.251Z,33.50
2019-06-27T07:20:11.592Z,33.70
2019-06-27T07:22:39.515Z,33.80
2019-06-27T07:25:07.494Z,33.90
2019-06-27T07:27:35.507Z,34.00
2019-06-27T07:30:04.497Z,34.10
2019-06-27T07:32:32.402Z,34.20
2019-06-27T07:35:00.273Z,34.30
2019-06-27T07:37:28.188Z,34.40
2019-06-27T07:39:56.051Z,34.60
2019-06-27T07:42:23.978Z,34.50
2019-06-27T07:44:51.847Z,34.60
2019-06-27T07:47:19.763Z,34.60
2019-06-27T07:49:48.061Z,34.70
2019-06-27T07:52:16.104Z,34.70
2019-06-27T07:54:43.978Z,34.80
2019-06-27T07:57:11.856Z,34.80
2019-06-27T07:59:39.763Z,34.90
2019-06-27T08:02:07.638Z,34.80
2019-06-27T08:04:35.561Z,34.90
2019-06-27T08:07:03.438Z,34.90
2019-06-27T08:09:31.351Z,35.00
2019-06-27T08:11:59.220Z,35.00
2019-06-27T08:14:27.179Z,35.00
2019-06-27T08:16:55.477Z,35.10
2019-06-27T08:19:23.362Z,35.20
2019-06-27T08:21:51.230Z,35.30
2019-06-27T08:24:19.163Z,35.30
2019-06-27T08:26:47.027Z,35.40
2019-06-27T08:29:14.950Z,35.40
2019-06-27T08:31:51.532Z,35.50
2019-06-27T08:34:12.522Z,35.50
2019-06-27T08:36:40.403Z,35.60
2019-06-27T08:39:08.323Z,35.70
2019-06-27T08:41:36.200Z,35.60
2019-06-27T08:44:04.230Z,35.70
2019-06-27T08:46:33.020Z,35.70
2019-06-27T08:49:00.991Z,35.80
2019-06-27T08:51:29.393Z,35.80
2019-06-27T08:53:57.350Z,35.90
2019-06-27T08:56:25.291Z,35.90
2019-06-27T08:58:53.679Z,35.80
2019-06-27T09:01:21.588Z,35.80
2019-06-27T09:03:49.975Z,35.90
2019-06-27T09:06:20.896Z,35.90
2019-06-27T09:08:47.613Z,36.00
2019-06-27T09:11:15.537Z,35.90
2019-06-27T09:13:43.435Z,35.90
2019-06-27T09:16:11.339Z,35.80
2019-06-27T09:18:39.211Z,35.90
2019-06-27T09:21:07.130Z,36.00
2019-06-27T09:23:37.555Z,36.00
2019-06-27T09:26:04.739Z,36.10
2019-06-27T09:28:32.626Z,36.20
2019-06-27T09:31:00.539Z,36.30
2019-06-27T09:33:28.440Z,36.30
2019-06-27T09:35:56.372Z,36.30
2019-06-27T09:38:24.236Z,36.40
2019-06-27T09:40:52.172Z,36.50
2019-06-27T09:43:20.094Z,36.60
2019-06-27T09:45:48.015Z,36.60
2019-06-27T09:48:15.988Z,36.70
2019-06-27T09:50:44.090Z,36.70
2019-06-27T09:53:12.003Z,36.80
2019-06-27T09:55:39.934Z,37.10
2019-06-27T09:58:07.803Z,37.10
2019-06-27T10:00:35.720Z,37.30
2019-06-27T10:03:03.647Z,37.40
2019-06-27T10:05:31.593Z,37.50
2019-06-27T10:07:59.459Z,37.60
2019-06-27T10:10:27.370Z,37.70
2019-06-27T10:12:55.264Z,37.60
2019-06-27T10:15:23.185Z,37.60
2019-06-27T10:17:51.043Z,37.70
2019-06-27T10:20:19.370Z,37.90
2019-06-27T10:22:47.247Z,38.10
2019-06-27T10:25:15.138Z,38.20
2019-06-27T10:27:43.143Z,38.30
2019-06-27T10:30:13.116Z,38.40
2019-06-27T10:32:54.381Z,38.50
2019-06-27T10:35:10.823Z,38.60
2019-06-27T10:37:38.743Z,38.80
2019-06-27T10:40:08.128Z,38.80
2019-06-27T10:42:36.055Z,38.60
2019-06-27T10:45:04.602Z,38.70
2019-06-27T10:47:32.516Z,38.90
2019-06-27T10:50:00.415Z,38.90
2019-06-27T10:52:28.518Z,39.10
2019-06-27T10:54:56.933Z,39.20
2019-06-27T10:57:24.904Z,39.40
2019-06-27T10:59:52.870Z,39.60
2019-06-27T11:02:20.787Z,39.70
2019-06-27T11:04:49.046Z,39.80
2019-06-27T11:07:17.694Z,39.90
2019-06-27T11:09:45.913Z,39.90
2019-06-27T11:12:13.828Z,39.90
2019-06-27T11:14:41.686Z,39.90
2019-06-27T11:17:09.634Z,39.90
2019-06-27T11:19:51.472Z,40.20
2019-06-27T11:22:07.235Z,40.20
2019-06-27T11:24:35.122Z,40.20
2019-06-27T11:27:03.151Z,40.20
2019-06-27T11:29:31.028Z,40.30
2019-06-27T11:31:58.939Z,40.40
2019-06-27T11:34:26.915Z,40.50
2019-06-27T11:36:54.912Z,40.50
2019-06-27T11:39:23.451Z,40.50
2019-06-27T11:41:51.619Z,40.60
2019-06-27T11:44:19.501Z,40.60
2019-06-27T11:46:47.418Z,40.70
2019-06-27T11:49:15.295Z,40.80
2019-06-27T11:51:43.303Z,40.80
2019-06-27T11:54:11.233Z,40.90
2019-06-27T11:56:39.106Z,41.00
2019-06-27T11:59:07.040Z,41.00
2019-06-27T12:01:34.876Z,41.00
2019-06-27T12:04:02.814Z,40.80
2019-06-27T12:06:30.731Z,40.70
2019-06-27T12:08:58.721Z,40.80
2019-06-27T12:11:26.613Z,40.80
2019-06-27T12:13:54.543Z,40.90
2019-06-27T12:16:22.440Z,41.00
2019-06-27T12:18:50.355Z,41.10
2019-06-27T12:21:18.242Z,41.30
2019-06-27T12:23:46.172Z,41.30
2019-06-27T12:26:14.503Z,41.40
2019-06-27T12:28:42.455Z,41.40
2019-06-27T12:31:20.081Z,41.50
2019-06-27T12:33:40.111Z,41.40
2019-06-27T12:36:08.127Z,41.30
2019-06-27T12:38:36.050Z,41.30
2019-06-27T12:41:04.300Z,41.30
2019-06-27T12:43:32.215Z,41.40
2019-06-27T12:46:00.228Z,41.50
2019-06-27T12:48:28.135Z,41.50
2019-06-27T12:50:56.396Z,41.60
2019-06-27T12:53:24.366Z,41.60
2019-06-27T12:55:52.697Z,41.60
2019-06-27T12:58:20.664Z,41.30
2019-06-27T13:00:48.587Z,41.20
2019-06-27T13:03:16.551Z,41.30
2019-06-27T13:05:44.478Z,41.40
2019-06-27T13:08:12.350Z,41.40
2019-06-27T13:10:40.372Z,41.50
2019-06-27T13:13:08.250Z,41.60
2019-06-27T13:15:36.228Z,41.50
2019-06-27T13:18:04.143Z,41.40
2019-06-27T13:20:32.025Z,41.30
2019-06-27T13:23:00.096Z,41.20
2019-06-27T13:25:27.970Z,41.10
2019-06-27T13:27:56.406Z,41.10
2019-06-27T13:30:24.385Z,41.00
2019-06-27T13:32:52.431Z,41.00
2019-06-27T13:35:20.295Z,41.00
2019-06-27T13:37:48.197Z,40.90
2019-06-27T13:40:16.344Z,41.00
2019-06-27T13:42:44.235Z,40.90
2019-06-27T13:45:12.384Z,40.80
2019-06-27T13:47:40.626Z,40.80
2019-06-27T13:50:09.052Z,40.80
2019-06-27T13:52:37.062Z,40.80
2019-06-27T13:55:05.327Z,40.90
2019-06-27T13:57:33.228Z,40.80
2019-06-27T14:00:01.632Z,40.80
2019-06-27T14:02:29.982Z,40.80
2019-06-27T14:04:58.062Z,40.70
2019-06-27T14:07:25.927Z,40.70
2019-06-27T14:09:57.169Z,40.60
2019-06-27T14:12:23.633Z,40.60
2019-06-27T14:14:59.911Z,40.60
2019-06-27T14:17:21.303Z,40.50
2019-06-27T14:19:50.865Z,40.50
2019-06-27T14:22:32.654Z,40.60
2019-06-27T14:24:48.582Z,40.50
2019-06-27T14:27:16.504Z,40.40
2019-06-27T14:29:44.376Z,40.40
2019-06-27T14:32:12.403Z,40.40
2019-06-27T14:34:40.662Z,40.30
2019-06-27T14:37:08.527Z,40.10
2019-06-27T14:39:36.447Z,40.00
2019-06-27T14:42:04.327Z,40.00
2019-06-27T14:44:32.232Z,39.90
2019-06-27T14:47:00.103Z,39.90
2019-06-27T14:49:28.416Z,39.90
2019-06-27T14:51:56.304Z,40.00
2019-06-27T14:54:24.259Z,40.00
2019-06-27T14:56:52.139Z,40.00
2019-06-27T14:59:20.939Z,40.00
2019-06-27T15:01:49.260Z,39.90
2019-06-27T15:04:17.342Z,39.90
2019-06-27T15:06:45.262Z,39.90
2019-06-27T15:09:13.090Z,39.80
2019-06-27T15:11:41.102Z,39.80
2019-06-27T15:14:08.980Z,39.80
2019-06-27T15:16:37.314Z,39.80
2019-06-27T15:19:05.191Z,39.70
2019-06-27T15:21:33.071Z,39.70
2019-06-27T15:24:01.175Z,39.60
2019-06-27T15:26:29.039Z,39.60
2019-06-27T15:28:56.988Z,39.60
2019-06-27T15:31:25.459Z,39.50
2019-06-27T15:33:53.441Z,39.40
2019-06-27T15:36:21.391Z,39.30
2019-06-27T15:38:49.459Z,39.20
2019-06-27T15:41:17.342Z,39.10
2019-06-27T15:43:45.672Z,39.10
2019-06-27T15:46:13.613Z,39.00
2019-06-27T15:48:41.475Z,38.90
2019-06-27T15:51:09.884Z,38.80
2019-06-27T15:53:37.833Z,38.80
2019-06-27T15:56:05.754Z,38.70
2019-06-27T15:58:33.630Z,38.60
2019-06-27T16:01:01.496Z,38.50
2019-06-27T16:03:29.427Z,38.50
2019-06-27T16:06:08.563Z,38.50
2019-06-27T16:08:27.292Z,38.40
2019-06-27T16:10:55.396Z,38.30
2019-06-27T16:13:23.283Z,38.20
2019-06-27T16:15:51.158Z,38.20
2019-06-27T16:18:19.067Z,38.20
2019-06-27T16:20:47.259Z,38.20
2019-06-27T16:23:15.132Z,38.10
2019-06-27T16:25:43.201Z,38.00
2019-06-27T16:28:11.070Z,38.00
2019-06-27T16:30:38.963Z,37.90
2019-06-27T16:33:06.972Z,37.90
2019-06-27T16:35:34.834Z,37.90
2019-06-27T16:38:02.705Z,37.70
2019-06-27T16:40:30.642Z,37.70
2019-06-27T16:42:58.515Z,37.70
2019-06-27T16:45:26.613Z,37.60
2019-06-27T16:47:54.663Z,37.60
2019-06-27T16:50:22.992Z,37.50
2019-06-27T16:52:50.915Z,37.50
2019-06-27T16:55:19.393Z,37.40
2019-06-27T16:57:47.271Z,37.40
2019-06-27T17:00:15.443Z,37.30
2019-06-27T17:02:43.459Z,37.30
2019-06-27T17:05:13.143Z,37.20
2019-06-27T17:07:41.029Z,37.20
2019-06-27T17:10:09.471Z,37.10
2019-06-27T17:12:37.414Z,37.00
2019-06-27T17:15:06.299Z,37.00
2019-06-27T17:17:34.223Z,36.90
2019-06-27T17:20:02.143Z,36.80
2019-06-27T17:22:30.028Z,36.80
2019-06-27T17:24:57.941Z,36.70
2019-06-27T17:27:25.819Z,36.60
2019-06-27T17:29:53.736Z,36.60
2019-06-27T17:32:21.755Z,36.50
2019-06-27T17:34:49.622Z,36.50
2019-06-27T17:37:18.751Z,36.40
2019-06-27T17:39:46.991Z,36.30
2019-06-27T17:42:14.888Z,36.30
2019-06-27T17:44:42.751Z,36.20
2019-06-27T17:47:10.750Z,36.20
2019-06-27T17:49:38.618Z,36.10
2019-06-27T17:52:06.487Z,36.00
2019-06-27T17:54:34.935Z,35.90
2019-06-27T17:57:02.923Z,35.80
2019-06-27T17:59:30.778Z,35.70
2019-06-27T18:01:59.230Z,35.60
2019-06-27T18:04:27.113Z,35.50
2019-06-27T18:06:55.000Z,35.50
2019-06-27T18:09:22.925Z,35.40
2019-06-27T18:11:50.814Z,35.30
2019-06-27T18:14:19.108Z,35.30
2019-06-27T18:16:47.019Z,35.10
2019-06-27T18:19:14.886Z,35.10
2019-06-27T18:21:44.461Z,35.00
2019-06-27T18:24:12.774Z,34.90
2019-06-27T18:26:40.671Z,34.80
2019-06-27T18:29:08.560Z,34.70
2019-06-27T18:31:36.489Z,34.60
2019-06-27T18:34:04.480Z,34.50
2019-06-27T18:36:32.391Z,34.40
2019-06-27T18:39:00.391Z,34.40
2019-06-27T18:41:28.281Z,34.30
2019-06-27T18:43:56.160Z,34.20
2019-06-27T18:46:24.173Z,34.10
2019-06-27T18:48:52.255Z,33.90
2019-06-27T18:51:20.153Z,33.90
2019-06-27T18:53:48.134Z,33.70
2019-06-27T18:56:16.116Z,33.60
2019-06-27T18:58:43.999Z,33.60
2019-06-27T19:01:12.003Z,33.40
2019-06-27T19:03:40.276Z,33.30
2019-06-27T19:06:08.619Z,33.20
2019-06-27T19:08:36.729Z,33.20
2019-06-27T19:11:04.663Z,33.00
2019-06-27T19:13:32.549Z,32.90
2019-06-27T19:16:00.579Z,32.80
2019-06-27T19:18:44.097Z,32.70
2019-06-27T19:21:16.574Z,32.50
2019-06-27T19:23:56.082Z,32.40
2019-06-27T19:26:24.527Z,32.30
2019-06-27T19:28:52.405Z,32.10
2019-06-27T19:31:20.480Z,32.00
2019-06-27T19:33:48.483Z,31.90
2019-06-27T19:36:16.399Z,31.80
2019-06-27T19:38:44.776Z,31.60
2019-06-27T19:41:12.707Z,31.50
2019-06-27T19:43:40.559Z,31.40
2019-06-27T19:46:08.512Z,31.20
2019-06-27T19:48:36.423Z,31.00
2019-06-27T19:51:04.325Z,30.80
2019-06-27T19:53:32.183Z,30.70
2019-06-27T19:56:00.178Z,30.50
2019-06-27T19:58:28.026Z,30.40
2019-06-27T20:00:56.301Z,30.20
2019-06-27T20:03:24.371Z,30.10
2019-06-27T20:05:52.218Z,29.90
2019-06-27T20:08:20.334Z,29.80
2019-06-27T20:10:48.442Z,29.60
2019-06-27T20:13:16.307Z,29.40
2019-06-27T20:15:44.226Z,29.30
2019-06-27T20:18:12.186Z,29.20
2019-06-27T20:20:40.386Z,29.10
2019-06-27T20:23:08.434Z,29.00
2019-06-27T20:25:36.361Z,29.00
2019-06-27T20:28:05.121Z,28.90
2019-06-27T20:30:33.047Z,28.80
2019-06-27T20:33:01.374Z,28.80
2019-06-27T20:35:29.222Z,28.70
2019-06-27T20:37:57.078Z,28.60
2019-06-27T20:40:25.259Z,28.60
2019-06-27T20:42:53.570Z,28.60
2019-06-27T20:45:21.560Z,28.60
2019-06-27T20:47:49.588Z,28.50
2019-06-27T20:50:18.681Z,28.50
2019-06-27T20:52:46.954Z,28.50
2019-06-27T20:55:16.002Z,28.40
2019-06-27T20:57:43.940Z,28.20
2019-06-27T21:00:15.124Z,28.00
2019-06-27T21:02:48.040Z,27.80
2019-06-27T21:05:22.721Z,27.60
2019-06-27T21:07:56.539Z,27.50
2019-06-27T21:10:28.050Z,27.40
2019-06-27T21:12:56.003Z,27.20
2019-06-27T21:15:28.799Z,27.10
2019-06-27T21:18:27.179Z,26.90
2019-06-27T21:20:55.563Z,26.80
2019-06-27T21:23:27.795Z,26.60
2019-06-27T21:26:02.377Z,26.60
2019-06-27T21:28:38.582Z,26.60
2019-06-27T21:31:09.375Z,26.60
2019-06-27T21:33:37.256Z,26.50
2019-06-27T21:36:08.717Z,26.40
2019-06-27T21:39:08.099Z,26.30
2019-06-27T21:41:46.291Z,26.30
2019-06-27T21:44:16.787Z,26.10
2019-06-27T21:46:45.883Z,26.00
2019-06-27T21:49:18.494Z,25.80
2019-06-27T21:51:48.221Z,25.70
2019-06-27T21:54:19.233Z,25.70
2019-06-27T21:56:52.220Z,25.60
2019-06-27T21:59:40.069Z,25.50
2019-06-27T22:02:17.307Z,25.40
2019-06-27T22:04:48.428Z,25.40
2019-06-27T22:07:16.926Z,25.30
2019-06-27T22:09:47.467Z,25.20
2019-06-27T22:12:25.035Z,25.10
2019-06-27T22:14:58.333Z,25.10
2019-06-27T22:17:45.528Z,25.10
2019-06-27T22:20:21.351Z,25.10
2019-06-27T22:22:58.276Z,25.00
2019-06-27T22:25:40.232Z,24.80
2019-06-27T22:28:05.327Z,24.80
2019-06-27T22:30:37.960Z,24.80
2019-06-27T22:33:07.184Z,24.80
2019-06-27T22:35:35.687Z,24.70
2019-06-27T22:38:25.919Z,24.70
2019-06-27T22:41:12.246Z,24.70
2019-06-27T22:43:58.485Z,24.60
2019-06-27T22:46:44.788Z,24.50
2019-06-27T22:49:13.900Z,24.40
2019-06-27T22:51:51.768Z,24.40
2019-06-27T22:54:21.608Z,24.30
2019-06-27T22:56:49.630Z,24.40
2019-06-27T22:59:17.513Z,24.40
2019-06-27T23:01:45.530Z,24.40
2019-06-27T23:04:17.302Z,24.40
2019-06-27T23:06:45.275Z,24.40
2019-06-27T23:09:13.226Z,24.30
2019-06-27T23:11:43.725Z,24.20
2019-06-27T23:14:12.641Z,24.10
2019-06-27T23:16:41.067Z,24.10
2019-06-27T23:19:11.679Z,24.10
2019-06-27T23:21:41.381Z,24.10
2019-06-27T23:24:09.362Z,24.00
2019-06-27T23:26:37.251Z,24.00
2019-06-27T23:29:05.123Z,24.00
2019-06-27T23:31:33.176Z,24.10
2019-06-27T23:34:01.463Z,24.00
2019-06-27T23:36:32.832Z,24.00
2019-06-27T23:39:00.756Z,24.00
2019-06-27T23:41:29.053Z,23.90
2019-06-27T23:43:58.278Z,23.80
2019-06-27T23:46:40.084Z,23.80
2019-06-27T23:49:09.599Z,23.80
2019-06-27T23:51:37.592Z,23.70
2019-06-27T23:54:06.612Z,23.60
2019-06-27T23:56:34.572Z,23.50
2019-06-27T23:59:02.631Z,23.40
